sensor_id;sensor_type;location;lat;lon;timestamp;temperature;humidity
69543;SHT31;56762;49.494;11.768;2023-06-26T00:00:02;17.32;78.10
69543;SHT31;56762;49.494;11.768;2023-06-26T00:02:31;17.35;77.08
69543;SHT31;56762;49.494;11.768;2023-06-26T00:05:01;17.25;77.29
69543;SHT31;56762;49.494;11.768;2023-06-26T00:07:29;17.26;77.07
69543;SHT31;56762;49.494;11.768;2023-06-26T00:09:57;17.26;76.67
69543;SHT31;56762;49.494;11.768;2023-06-26T00:12:25;17.23;76.78
69543;SHT31;56762;49.494;11.768;2023-06-26T00:14:53;17.20;77.48
69543;SHT31;56762;49.494;11.768;2023-06-26T00:17:21;17.15;77.39
69543;SHT31;56762;49.494;11.768;2023-06-26T00:19:50;17.18;77.19
69543;SHT31;56762;49.494;11.768;2023-06-26T00:22:19;17.14;77.02
69543;SHT31;56762;49.494;11.768;2023-06-26T00:24:46;17.14;76.96
69543;SHT31;56762;49.494;11.768;2023-06-26T00:27:14;17.14;77.15
69543;SHT31;56762;49.494;11.768;2023-06-26T00:29:42;17.08;77.24
69543;SHT31;56762;49.494;11.768;2023-06-26T00:32:10;17.07;77.35
69543;SHT31;56762;49.494;11.768;2023-06-26T00:34:37;16.96;77.68
69543;SHT31;56762;49.494;11.768;2023-06-26T00:37:05;16.94;77.94
69543;SHT31;56762;49.494;11.768;2023-06-26T00:39:34;16.91;78.26
69543;SHT31;56762;49.494;11.768;2023-06-26T00:42:02;16.88;78.24
69543;SHT31;56762;49.494;11.768;2023-06-26T00:44:32;16.82;78.30
69543;SHT31;56762;49.494;11.768;2023-06-26T00:46:59;16.82;78.43
69543;SHT31;56762;49.494;11.768;2023-06-26T00:49:28;16.78;78.43
69543;SHT31;56762;49.494;11.768;2023-06-26T00:51:56;16.77;78.47
69543;SHT31;56762;49.494;11.768;2023-06-26T00:54:24;16.75;77.99
69543;SHT31;56762;49.494;11.768;2023-06-26T00:56:53;16.72;78.17
69543;SHT31;56762;49.494;11.768;2023-06-26T00:59:21;16.65;78.94
69543;SHT31;56762;49.494;11.768;2023-06-26T01:01:49;16.64;78.40
69543;SHT31;56762;49.494;11.768;2023-06-26T01:04:16;16.60;78.39
69543;SHT31;56762;49.494;11.768;2023-06-26T01:06:46;16.54;78.12
69543;SHT31;56762;49.494;11.768;2023-06-26T01:09:17;16.54;78.50
69543;SHT31;56762;49.494;11.768;2023-06-26T01:11:46;16.53;78.80
69543;SHT31;56762;49.494;11.768;2023-06-26T01:14:15;16.50;78.98
69543;SHT31;56762;49.494;11.768;2023-06-26T01:16:43;16.53;78.63
69543;SHT31;56762;49.494;11.768;2023-06-26T01:19:19;16.46;78.85
69543;SHT31;56762;49.494;11.768;2023-06-26T01:21:56;16.41;78.73
69543;SHT31;56762;49.494;11.768;2023-06-26T01:24:32;16.34;78.86
69543;SHT31;56762;49.494;11.768;2023-06-26T01:27:02;16.33;79.45
69543;SHT31;56762;49.494;11.768;2023-06-26T01:29:31;16.27;79.97
69543;SHT31;56762;49.494;11.768;2023-06-26T01:32:00;16.24;80.32
69543;SHT31;56762;49.494;11.768;2023-06-26T01:34:29;16.23;80.63
69543;SHT31;56762;49.494;11.768;2023-06-26T01:36:57;16.21;80.72
69543;SHT31;56762;49.494;11.768;2023-06-26T01:39:25;16.26;80.78
69543;SHT31;56762;49.494;11.768;2023-06-26T01:41:53;16.23;80.68
69543;SHT31;56762;49.494;11.768;2023-06-26T01:44:26;16.19;81.01
69543;SHT31;56762;49.494;11.768;2023-06-26T01:47:00;16.13;81.19
69543;SHT31;56762;49.494;11.768;2023-06-26T01:49:36;16.10;81.34
69543;SHT31;56762;49.494;11.768;2023-06-26T01:52:18;16.12;80.96
69543;SHT31;56762;49.494;11.768;2023-06-26T01:54:53;16.06;81.10
69543;SHT31;56762;49.494;11.768;2023-06-26T01:57:22;16.08;81.33
69543;SHT31;56762;49.494;11.768;2023-06-26T01:59:52;16.00;81.28
69543;SHT31;56762;49.494;11.768;2023-06-26T02:02:23;16.00;81.19
69543;SHT31;56762;49.494;11.768;2023-06-26T02:04:51;15.93;81.54
69543;SHT31;56762;49.494;11.768;2023-06-26T02:07:19;15.92;81.81
69543;SHT31;56762;49.494;11.768;2023-06-26T02:09:47;15.92;81.64
69543;SHT31;56762;49.494;11.768;2023-06-26T02:12:14;15.88;81.77
69543;SHT31;56762;49.494;11.768;2023-06-26T02:14:42;15.90;81.45
69543;SHT31;56762;49.494;11.768;2023-06-26T02:17:11;15.93;80.87
69543;SHT31;56762;49.494;11.768;2023-06-26T02:19:39;15.90;80.57
69543;SHT31;56762;49.494;11.768;2023-06-26T02:22:14;15.88;80.11
69543;SHT31;56762;49.494;11.768;2023-06-26T02:24:42;15.85;80.27
69543;SHT31;56762;49.494;11.768;2023-06-26T02:27:10;15.79;80.33
69543;SHT31;56762;49.494;11.768;2023-06-26T02:29:39;15.82;80.05
69543;SHT31;56762;49.494;11.768;2023-06-26T02:32:07;15.78;79.84
69543;SHT31;56762;49.494;11.768;2023-06-26T02:34:36;15.73;80.25
69543;SHT31;56762;49.494;11.768;2023-06-26T02:37:04;15.73;80.22
69543;SHT31;56762;49.494;11.768;2023-06-26T02:39:34;15.68;80.66
69543;SHT31;56762;49.494;11.768;2023-06-26T02:42:02;15.69;80.52
69543;SHT31;56762;49.494;11.768;2023-06-26T02:44:30;15.66;80.38
69543;SHT31;56762;49.494;11.768;2023-06-26T02:46:57;15.65;80.43
69543;SHT31;56762;49.494;11.768;2023-06-26T02:49:25;15.66;80.31
69543;SHT31;56762;49.494;11.768;2023-06-26T02:51:54;15.70;80.06
69543;SHT31;56762;49.494;11.768;2023-06-26T02:54:22;15.68;80.20
69543;SHT31;56762;49.494;11.768;2023-06-26T02:56:50;15.63;80.31
69543;SHT31;56762;49.494;11.768;2023-06-26T02:59:19;15.69;80.16
69543;SHT31;56762;49.494;11.768;2023-06-26T03:01:47;15.70;79.94
69543;SHT31;56762;49.494;11.768;2023-06-26T03:04:15;15.70;79.97
69543;SHT31;56762;49.494;11.768;2023-06-26T03:06:44;15.72;79.56
69543;SHT31;56762;49.494;11.768;2023-06-26T03:09:13;15.65;80.21
69543;SHT31;56762;49.494;11.768;2023-06-26T03:11:42;15.63;80.04
69543;SHT31;56762;49.494;11.768;2023-06-26T03:14:10;15.59;80.13
69543;SHT31;56762;49.494;11.768;2023-06-26T03:16:38;15.55;80.40
69543;SHT31;56762;49.494;11.768;2023-06-26T03:19:06;15.52;80.65
69543;SHT31;56762;49.494;11.768;2023-06-26T03:21:34;15.47;81.05
69543;SHT31;56762;49.494;11.768;2023-06-26T03:24:02;15.48;81.06
69543;SHT31;56762;49.494;11.768;2023-06-26T03:26:31;15.47;81.10
69543;SHT31;56762;49.494;11.768;2023-06-26T03:28:59;15.44;80.96
69543;SHT31;56762;49.494;11.768;2023-06-26T03:31:27;15.44;81.35
69543;SHT31;56762;49.494;11.768;2023-06-26T03:33:55;15.45;80.84
69543;SHT31;56762;49.494;11.768;2023-06-26T03:36:22;15.44;80.78
69543;SHT31;56762;49.494;11.768;2023-06-26T03:38:50;15.45;81.45
69543;SHT31;56762;49.494;11.768;2023-06-26T03:41:23;15.47;81.44
69543;SHT31;56762;49.494;11.768;2023-06-26T03:43:52;15.51;81.10
69543;SHT31;56762;49.494;11.768;2023-06-26T03:46:21;15.54;80.86
69543;SHT31;56762;49.494;11.768;2023-06-26T03:48:49;15.59;81.28
69543;SHT31;56762;49.494;11.768;2023-06-26T03:51:17;15.62;81.59
69543;SHT31;56762;49.494;11.768;2023-06-26T03:53:45;15.68;81.48
69543;SHT31;56762;49.494;11.768;2023-06-26T03:56:13;15.75;80.98
69543;SHT31;56762;49.494;11.768;2023-06-26T03:58:41;15.83;81.35
69543;SHT31;56762;49.494;11.768;2023-06-26T04:01:10;15.93;81.00
69543;SHT31;56762;49.494;11.768;2023-06-26T04:03:38;16.05;81.26
69543;SHT31;56762;49.494;11.768;2023-06-26T04:06:06;16.12;80.96
69543;SHT31;56762;49.494;11.768;2023-06-26T04:08:34;16.24;80.18
69543;SHT31;56762;49.494;11.768;2023-06-26T04:11:02;16.33;79.60
69543;SHT31;56762;49.494;11.768;2023-06-26T04:13:29;16.48;79.46
69543;SHT31;56762;49.494;11.768;2023-06-26T04:15:57;16.58;79.33
69543;SHT31;56762;49.494;11.768;2023-06-26T04:18:26;16.68;78.28
69543;SHT31;56762;49.494;11.768;2023-06-26T04:21:05;16.78;77.54
69543;SHT31;56762;49.494;11.768;2023-06-26T04:23:33;16.87;77.11
69543;SHT31;56762;49.494;11.768;2023-06-26T04:26:01;16.94;77.22
69543;SHT31;56762;49.494;11.768;2023-06-26T04:28:31;17.08;77.23
69543;SHT31;56762;49.494;11.768;2023-06-26T04:30:59;17.19;76.40
69543;SHT31;56762;49.494;11.768;2023-06-26T04:33:29;17.30;76.07
69543;SHT31;56762;49.494;11.768;2023-06-26T04:35:56;17.39;75.71
69543;SHT31;56762;49.494;11.768;2023-06-26T04:38:24;17.45;75.31
69543;SHT31;56762;49.494;11.768;2023-06-26T04:40:52;17.50;75.45
69543;SHT31;56762;49.494;11.768;2023-06-26T04:43:20;17.56;75.40
69543;SHT31;56762;49.494;11.768;2023-06-26T04:45:48;17.63;75.10
69543;SHT31;56762;49.494;11.768;2023-06-26T04:48:15;17.71;74.91
69543;SHT31;56762;49.494;11.768;2023-06-26T04:50:45;17.80;74.80
69543;SHT31;56762;49.494;11.768;2023-06-26T04:53:20;17.94;75.12
69543;SHT31;56762;49.494;11.768;2023-06-26T04:55:49;17.98;74.74
69543;SHT31;56762;49.494;11.768;2023-06-26T04:58:18;18.07;74.35
69543;SHT31;56762;49.494;11.768;2023-06-26T05:00:46;18.08;74.01
69543;SHT31;56762;49.494;11.768;2023-06-26T05:03:15;18.18;73.94
69543;SHT31;56762;49.494;11.768;2023-06-26T05:05:45;18.27;73.70
69543;SHT31;56762;49.494;11.768;2023-06-26T05:08:14;18.34;73.97
69543;SHT31;56762;49.494;11.768;2023-06-26T05:10:42;18.42;73.92
69543;SHT31;56762;49.494;11.768;2023-06-26T05:13:10;18.45;73.11
69543;SHT31;56762;49.494;11.768;2023-06-26T05:15:41;18.53;73.00
69543;SHT31;56762;49.494;11.768;2023-06-26T05:18:09;18.56;73.24
69543;SHT31;56762;49.494;11.768;2023-06-26T05:20:37;18.66;73.01
69543;SHT31;56762;49.494;11.768;2023-06-26T05:23:08;18.75;73.13
69543;SHT31;56762;49.494;11.768;2023-06-26T05:25:38;18.85;73.20
69543;SHT31;56762;49.494;11.768;2023-06-26T05:28:07;18.90;72.92
69543;SHT31;56762;49.494;11.768;2023-06-26T05:30:37;18.96;72.12
69543;SHT31;56762;49.494;11.768;2023-06-26T05:33:05;19.04;72.39
69543;SHT31;56762;49.494;11.768;2023-06-26T05:35:36;19.13;72.20
69543;SHT31;56762;49.494;11.768;2023-06-26T05:38:04;19.27;72.32
69543;SHT31;56762;49.494;11.768;2023-06-26T05:40:34;19.37;72.04
69543;SHT31;56762;49.494;11.768;2023-06-26T05:43:03;19.50;71.16
69543;SHT31;56762;49.494;11.768;2023-06-26T05:45:32;19.61;70.91
69543;SHT31;56762;49.494;11.768;2023-06-26T05:47:59;19.72;71.46
69543;SHT31;56762;49.494;11.768;2023-06-26T05:50:28;19.79;71.54
69543;SHT31;56762;49.494;11.768;2023-06-26T05:52:56;19.93;71.57
69543;SHT31;56762;49.494;11.768;2023-06-26T05:55:25;20.08;71.31
69543;SHT31;56762;49.494;11.768;2023-06-26T05:57:56;20.18;70.77
69543;SHT31;56762;49.494;11.768;2023-06-26T06:00:26;20.30;70.76
69543;SHT31;56762;49.494;11.768;2023-06-26T06:02:54;20.39;70.57
69543;SHT31;56762;49.494;11.768;2023-06-26T06:05:22;20.50;69.94
69543;SHT31;56762;49.494;11.768;2023-06-26T06:07:50;20.56;70.42
69543;SHT31;56762;49.494;11.768;2023-06-26T06:10:18;20.57;70.39
69543;SHT31;56762;49.494;11.768;2023-06-26T06:12:46;20.70;69.63
69543;SHT31;56762;49.494;11.768;2023-06-26T06:15:16;20.85;69.63
69543;SHT31;56762;49.494;11.768;2023-06-26T06:17:44;21.00;69.45
69543;SHT31;56762;49.494;11.768;2023-06-26T06:20:12;21.10;68.69
69543;SHT31;56762;49.494;11.768;2023-06-26T06:22:40;21.24;68.80
69543;SHT31;56762;49.494;11.768;2023-06-26T06:25:08;21.34;68.99
69543;SHT31;56762;49.494;11.768;2023-06-26T06:27:36;21.50;68.42
69543;SHT31;56762;49.494;11.768;2023-06-26T06:30:05;21.59;67.80
69543;SHT31;56762;49.494;11.768;2023-06-26T06:32:36;21.67;67.72
69543;SHT31;56762;49.494;11.768;2023-06-26T06:35:04;21.73;68.20
69543;SHT31;56762;49.494;11.768;2023-06-26T06:37:37;21.80;68.25
69543;SHT31;56762;49.494;11.768;2023-06-26T06:40:05;21.90;67.08
69543;SHT31;56762;49.494;11.768;2023-06-26T06:42:35;22.00;66.17
69543;SHT31;56762;49.494;11.768;2023-06-26T06:45:04;22.10;66.25
69543;SHT31;56762;49.494;11.768;2023-06-26T06:47:32;22.18;66.03
69543;SHT31;56762;49.494;11.768;2023-06-26T06:50:01;22.28;65.82
69543;SHT31;56762;49.494;11.768;2023-06-26T06:52:36;22.38;65.85
69543;SHT31;56762;49.494;11.768;2023-06-26T06:55:05;22.50;64.73
69543;SHT31;56762;49.494;11.768;2023-06-26T06:57:36;22.59;64.08
69543;SHT31;56762;49.494;11.768;2023-06-26T07:00:06;22.71;64.04
69543;SHT31;56762;49.494;11.768;2023-06-26T07:02:35;22.81;64.01
69543;SHT31;56762;49.494;11.768;2023-06-26T07:05:05;22.96;63.32
69543;SHT31;56762;49.494;11.768;2023-06-26T07:07:34;23.06;62.95
69543;SHT31;56762;49.494;11.768;2023-06-26T07:10:04;23.18;62.96
69543;SHT31;56762;49.494;11.768;2023-06-26T07:12:32;23.26;62.69
69543;SHT31;56762;49.494;11.768;2023-06-26T07:15:00;23.38;61.96
69543;SHT31;56762;49.494;11.768;2023-06-26T07:17:29;23.42;61.65
69543;SHT31;56762;49.494;11.768;2023-06-26T07:19:57;23.40;61.22
69543;SHT31;56762;49.494;11.768;2023-06-26T07:22:26;23.40;61.83
69543;SHT31;56762;49.494;11.768;2023-06-26T07:24:54;23.36;60.86
69543;SHT31;56762;49.494;11.768;2023-06-26T07:27:23;23.36;61.44
69543;SHT31;56762;49.494;11.768;2023-06-26T07:29:51;23.33;60.49
69543;SHT31;56762;49.494;11.768;2023-06-26T07:32:19;23.29;61.12
69543;SHT31;56762;49.494;11.768;2023-06-26T07:34:47;23.24;61.02
69543;SHT31;56762;49.494;11.768;2023-06-26T07:37:15;23.23;59.52
69543;SHT31;56762;49.494;11.768;2023-06-26T07:39:44;23.18;60.96
69543;SHT31;56762;49.494;11.768;2023-06-26T07:42:12;23.16;61.76
69543;SHT31;56762;49.494;11.768;2023-06-26T07:44:41;23.12;62.64
69543;SHT31;56762;49.494;11.768;2023-06-26T07:47:10;23.12;62.16
69543;SHT31;56762;49.494;11.768;2023-06-26T07:49:38;23.15;60.26
69543;SHT31;56762;49.494;11.768;2023-06-26T07:52:07;23.15;60.05
69543;SHT31;56762;49.494;11.768;2023-06-26T07:54:36;23.13;59.55
69543;SHT31;56762;49.494;11.768;2023-06-26T07:57:06;23.18;59.87
69543;SHT31;56762;49.494;11.768;2023-06-26T07:59:35;23.18;60.00
69543;SHT31;56762;49.494;11.768;2023-06-26T08:02:03;23.20;59.54
69543;SHT31;56762;49.494;11.768;2023-06-26T08:04:31;23.24;58.92
69543;SHT31;56762;49.494;11.768;2023-06-26T08:07:01;23.23;58.36
69543;SHT31;56762;49.494;11.768;2023-06-26T08:09:31;23.22;59.00
69543;SHT31;56762;49.494;11.768;2023-06-26T08:11:59;23.26;58.03
69543;SHT31;56762;49.494;11.768;2023-06-26T08:14:28;23.27;55.51
69543;SHT31;56762;49.494;11.768;2023-06-26T08:16:57;23.31;54.90
69543;SHT31;56762;49.494;11.768;2023-06-26T08:19:28;23.39;54.01
69543;SHT31;56762;49.494;11.768;2023-06-26T08:21:56;23.36;54.13
69543;SHT31;56762;49.494;11.768;2023-06-26T08:24:24;23.42;52.54
69543;SHT31;56762;49.494;11.768;2023-06-26T08:26:51;23.42;52.65
69543;SHT31;56762;49.494;11.768;2023-06-26T08:29:20;23.46;53.03
69543;SHT31;56762;49.494;11.768;2023-06-26T08:31:49;23.53;53.15
69543;SHT31;56762;49.494;11.768;2023-06-26T08:34:17;23.57;51.63
69543;SHT31;56762;49.494;11.768;2023-06-26T08:36:45;23.54;52.34
69543;SHT31;56762;49.494;11.768;2023-06-26T08:39:12;23.56;52.63
69543;SHT31;56762;49.494;11.768;2023-06-26T08:41:41;23.59;52.63
69543;SHT31;56762;49.494;11.768;2023-06-26T08:44:08;23.69;51.12
69543;SHT31;56762;49.494;11.768;2023-06-26T08:46:37;23.70;51.33
69543;SHT31;56762;49.494;11.768;2023-06-26T08:49:14;23.71;51.59
69543;SHT31;56762;49.494;11.768;2023-06-26T08:51:46;23.81;49.78
69543;SHT31;56762;49.494;11.768;2023-06-26T08:54:17;23.78;51.08
69543;SHT31;56762;49.494;11.768;2023-06-26T08:56:50;23.78;50.17
69543;SHT31;56762;49.494;11.768;2023-06-26T08:59:18;23.77;50.74
69543;SHT31;56762;49.494;11.768;2023-06-26T09:01:47;23.74;49.36
69543;SHT31;56762;49.494;11.768;2023-06-26T09:04:16;23.71;49.56
69543;SHT31;56762;49.494;11.768;2023-06-26T09:06:44;23.75;48.87
69543;SHT31;56762;49.494;11.768;2023-06-26T09:09:12;23.80;49.50
69543;SHT31;56762;49.494;11.768;2023-06-26T09:11:40;23.78;48.67
69543;SHT31;56762;49.494;11.768;2023-06-26T09:14:08;23.80;47.87
69543;SHT31;56762;49.494;11.768;2023-06-26T09:16:39;23.75;49.67
69543;SHT31;56762;49.494;11.768;2023-06-26T09:19:10;23.80;48.90
69543;SHT31;56762;49.494;11.768;2023-06-26T09:21:40;23.80;49.24
69543;SHT31;56762;49.494;11.768;2023-06-26T09:24:09;23.73;49.30
69543;SHT31;56762;49.494;11.768;2023-06-26T09:26:37;23.70;48.86
69543;SHT31;56762;49.494;11.768;2023-06-26T09:29:06;23.66;48.30
69543;SHT31;56762;49.494;11.768;2023-06-26T09:31:36;23.73;48.95
69543;SHT31;56762;49.494;11.768;2023-06-26T09:34:08;23.80;49.13
69543;SHT31;56762;49.494;11.768;2023-06-26T09:36:37;23.84;48.51
69543;SHT31;56762;49.494;11.768;2023-06-26T09:39:08;23.85;49.12
69543;SHT31;56762;49.494;11.768;2023-06-26T09:41:40;23.85;48.93
69543;SHT31;56762;49.494;11.768;2023-06-26T09:44:10;23.93;48.82
69543;SHT31;56762;49.494;11.768;2023-06-26T09:46:38;23.96;48.24
69543;SHT31;56762;49.494;11.768;2023-06-26T09:49:08;23.98;46.76
69543;SHT31;56762;49.494;11.768;2023-06-26T09:51:38;24.01;47.62
69543;SHT31;56762;49.494;11.768;2023-06-26T09:54:08;24.09;47.26
69543;SHT31;56762;49.494;11.768;2023-06-26T09:56:37;24.14;47.06
69543;SHT31;56762;49.494;11.768;2023-06-26T09:59:05;24.17;47.76
69543;SHT31;56762;49.494;11.768;2023-06-26T10:01:37;24.22;47.50
69543;SHT31;56762;49.494;11.768;2023-06-26T10:04:05;24.31;47.79
69543;SHT31;56762;49.494;11.768;2023-06-26T10:06:35;24.29;47.58
69543;SHT31;56762;49.494;11.768;2023-06-26T10:09:04;24.38;45.82
69543;SHT31;56762;49.494;11.768;2023-06-26T10:11:37;24.38;48.39
69543;SHT31;56762;49.494;11.768;2023-06-26T10:14:09;24.48;47.56
69543;SHT31;56762;49.494;11.768;2023-06-26T10:16:44;24.49;47.42
69543;SHT31;56762;49.494;11.768;2023-06-26T10:19:13;24.52;46.35
69543;SHT31;56762;49.494;11.768;2023-06-26T10:21:42;24.52;47.29
69543;SHT31;56762;49.494;11.768;2023-06-26T10:24:11;24.53;46.83
69543;SHT31;56762;49.494;11.768;2023-06-26T10:26:44;24.56;46.31
69543;SHT31;56762;49.494;11.768;2023-06-26T10:29:13;24.65;47.21
69543;SHT31;56762;49.494;11.768;2023-06-26T10:31:44;24.83;44.37
69543;SHT31;56762;49.494;11.768;2023-06-26T10:34:13;24.77;45.44
69543;SHT31;56762;49.494;11.768;2023-06-26T10:36:41;24.75;45.17
69543;SHT31;56762;49.494;11.768;2023-06-26T10:39:09;24.73;45.23
69543;SHT31;56762;49.494;11.768;2023-06-26T10:41:38;24.65;46.25
69543;SHT31;56762;49.494;11.768;2023-06-26T10:44:40;24.59;43.90
69543;SHT31;56762;49.494;11.768;2023-06-26T10:47:08;24.60;45.36
69543;SHT31;56762;49.494;11.768;2023-06-26T10:49:37;24.62;47.33
69543;SHT31;56762;49.494;11.768;2023-06-26T10:52:06;24.72;46.71
69543;SHT31;56762;49.494;11.768;2023-06-26T10:54:35;24.66;47.60
69543;SHT31;56762;49.494;11.768;2023-06-26T10:57:03;24.68;45.67
69543;SHT31;56762;49.494;11.768;2023-06-26T10:59:39;24.68;45.45
69543;SHT31;56762;49.494;11.768;2023-06-26T11:02:07;24.66;46.06
69543;SHT31;56762;49.494;11.768;2023-06-26T11:04:39;24.66;46.11
69543;SHT31;56762;49.494;11.768;2023-06-26T11:07:15;24.65;45.40
69543;SHT31;56762;49.494;11.768;2023-06-26T11:09:54;24.70;47.38
69543;SHT31;56762;49.494;11.768;2023-06-26T11:12:38;24.79;47.49
69543;SHT31;56762;49.494;11.768;2023-06-26T11:15:09;24.84;46.71
69543;SHT31;56762;49.494;11.768;2023-06-26T11:17:37;24.84;46.37
69543;SHT31;56762;49.494;11.768;2023-06-26T11:20:05;24.83;44.99
69543;SHT31;56762;49.494;11.768;2023-06-26T11:22:35;24.84;45.65
69543;SHT31;56762;49.494;11.768;2023-06-26T11:25:05;24.83;45.90
69543;SHT31;56762;49.494;11.768;2023-06-26T11:27:38;24.87;46.41
69543;SHT31;56762;49.494;11.768;2023-06-26T11:30:09;24.94;46.04
69543;SHT31;56762;49.494;11.768;2023-06-26T11:32:38;24.90;44.93
69543;SHT31;56762;49.494;11.768;2023-06-26T11:35:06;24.90;45.95
69543;SHT31;56762;49.494;11.768;2023-06-26T11:37:35;24.89;46.68
69543;SHT31;56762;49.494;11.768;2023-06-26T11:40:17;24.84;46.52
69543;SHT31;56762;49.494;11.768;2023-06-26T11:42:45;24.83;45.72
69543;SHT31;56762;49.494;11.768;2023-06-26T11:45:15;24.90;46.07
69543;SHT31;56762;49.494;11.768;2023-06-26T11:47:43;24.96;46.05
69543;SHT31;56762;49.494;11.768;2023-06-26T11:50:15;25.03;44.53
69543;SHT31;56762;49.494;11.768;2023-06-26T11:52:43;25.18;43.66
69543;SHT31;56762;49.494;11.768;2023-06-26T11:55:11;25.21;44.56
69543;SHT31;56762;49.494;11.768;2023-06-26T11:57:39;25.24;43.70
69543;SHT31;56762;49.494;11.768;2023-06-26T12:00:11;25.17;43.91
69543;SHT31;56762;49.494;11.768;2023-06-26T12:02:41;25.23;43.49
69543;SHT31;56762;49.494;11.768;2023-06-26T12:05:10;25.40;43.12
69543;SHT31;56762;49.494;11.768;2023-06-26T12:07:39;25.38;44.14
69543;SHT31;56762;49.494;11.768;2023-06-26T12:10:08;25.33;44.87
69543;SHT31;56762;49.494;11.768;2023-06-26T12:12:38;25.26;45.35
69543;SHT31;56762;49.494;11.768;2023-06-26T12:15:07;25.27;44.95
69543;SHT31;56762;49.494;11.768;2023-06-26T12:17:38;25.28;42.87
69543;SHT31;56762;49.494;11.768;2023-06-26T12:20:18;25.42;42.95
69543;SHT31;56762;49.494;11.768;2023-06-26T12:22:47;25.41;43.97
69543;SHT31;56762;49.494;11.768;2023-06-26T12:25:15;25.42;43.11
69543;SHT31;56762;49.494;11.768;2023-06-26T12:27:44;25.41;43.64
69543;SHT31;56762;49.494;11.768;2023-06-26T12:30:13;25.42;44.04
69543;SHT31;56762;49.494;11.768;2023-06-26T12:32:44;25.62;43.84
69543;SHT31;56762;49.494;11.768;2023-06-26T12:35:12;25.55;42.79
69543;SHT31;56762;49.494;11.768;2023-06-26T12:37:41;25.61;41.13
69543;SHT31;56762;49.494;11.768;2023-06-26T12:40:18;25.96;40.18
69543;SHT31;56762;49.494;11.768;2023-06-26T12:42:49;26.25;38.94
69543;SHT31;56762;49.494;11.768;2023-06-26T12:45:17;26.19;40.24
69543;SHT31;56762;49.494;11.768;2023-06-26T12:47:49;26.28;38.15
69543;SHT31;56762;49.494;11.768;2023-06-26T12:50:17;26.16;40.11
69543;SHT31;56762;49.494;11.768;2023-06-26T12:52:46;26.05;41.66
69543;SHT31;56762;49.494;11.768;2023-06-26T12:55:15;25.98;41.87
69543;SHT31;56762;49.494;11.768;2023-06-26T12:57:43;25.96;40.74
69543;SHT31;56762;49.494;11.768;2023-06-26T13:00:12;25.92;41.51
69543;SHT31;56762;49.494;11.768;2023-06-26T13:02:40;25.92;41.16
69543;SHT31;56762;49.494;11.768;2023-06-26T13:05:08;26.20;40.58
69543;SHT31;56762;49.494;11.768;2023-06-26T13:07:37;26.20;40.95
69543;SHT31;56762;49.494;11.768;2023-06-26T13:10:07;26.28;38.66
69543;SHT31;56762;49.494;11.768;2023-06-26T13:12:35;26.19;38.15
69543;SHT31;56762;49.494;11.768;2023-06-26T13:15:03;26.22;41.01
69543;SHT31;56762;49.494;11.768;2023-06-26T13:17:32;26.06;40.85
69543;SHT31;56762;49.494;11.768;2023-06-26T13:20:00;26.02;39.55
69543;SHT31;56762;49.494;11.768;2023-06-26T13:22:28;26.22;38.05
69543;SHT31;56762;49.494;11.768;2023-06-26T13:24:56;26.26;38.32
69543;SHT31;56762;49.494;11.768;2023-06-26T13:27:25;26.39;37.50
69543;SHT31;56762;49.494;11.768;2023-06-26T13:29:53;26.53;36.57
69543;SHT31;56762;49.494;11.768;2023-06-26T13:32:21;26.53;37.53
69543;SHT31;56762;49.494;11.768;2023-06-26T13:34:49;26.53;38.16
69543;SHT31;56762;49.494;11.768;2023-06-26T13:37:17;26.76;36.23
69543;SHT31;56762;49.494;11.768;2023-06-26T13:39:44;26.68;36.34
69543;SHT31;56762;49.494;11.768;2023-06-26T13:42:16;26.76;37.08
69543;SHT31;56762;49.494;11.768;2023-06-26T13:44:45;26.73;36.54
69543;SHT31;56762;49.494;11.768;2023-06-26T13:47:28;26.56;38.78
69543;SHT31;56762;49.494;11.768;2023-06-26T13:49:56;26.49;38.51
69543;SHT31;56762;49.494;11.768;2023-06-26T13:52:24;26.44;42.96
69543;SHT31;56762;49.494;11.768;2023-06-26T13:54:52;26.56;37.85
69543;SHT31;56762;49.494;11.768;2023-06-26T13:57:20;26.51;38.29
69543;SHT31;56762;49.494;11.768;2023-06-26T13:59:50;26.47;37.04
69543;SHT31;56762;49.494;11.768;2023-06-26T14:02:18;26.39;39.01
69543;SHT31;56762;49.494;11.768;2023-06-26T14:04:46;26.26;40.01
69543;SHT31;56762;49.494;11.768;2023-06-26T14:07:13;26.16;39.83
69543;SHT31;56762;49.494;11.768;2023-06-26T14:09:42;26.28;38.55
69543;SHT31;56762;49.494;11.768;2023-06-26T14:12:10;26.25;39.36
69543;SHT31;56762;49.494;11.768;2023-06-26T14:14:37;26.41;38.75
69543;SHT31;56762;49.494;11.768;2023-06-26T14:17:07;26.37;39.12
69543;SHT31;56762;49.494;11.768;2023-06-26T14:19:35;26.37;39.10
69543;SHT31;56762;49.494;11.768;2023-06-26T14:22:03;26.53;37.80
69543;SHT31;56762;49.494;11.768;2023-06-26T14:24:31;26.53;38.24
69543;SHT31;56762;49.494;11.768;2023-06-26T14:26:59;26.50;37.92
69543;SHT31;56762;49.494;11.768;2023-06-26T14:29:27;26.49;38.76
69543;SHT31;56762;49.494;11.768;2023-06-26T14:31:54;26.43;39.79
69543;SHT31;56762;49.494;11.768;2023-06-26T14:34:24;26.37;40.89
69543;SHT31;56762;49.494;11.768;2023-06-26T14:36:52;26.47;38.98
69543;SHT31;56762;49.494;11.768;2023-06-26T14:39:20;26.64;37.94
69543;SHT31;56762;49.494;11.768;2023-06-26T14:41:48;26.56;38.61
69543;SHT31;56762;49.494;11.768;2023-06-26T14:44:16;26.64;38.31
69543;SHT31;56762;49.494;11.768;2023-06-26T14:46:45;26.61;39.40
69543;SHT31;56762;49.494;11.768;2023-06-26T14:49:13;26.57;39.25
69543;SHT31;56762;49.494;11.768;2023-06-26T14:51:42;26.78;39.00
69543;SHT31;56762;49.494;11.768;2023-06-26T14:54:09;26.74;39.59
69543;SHT31;56762;49.494;11.768;2023-06-26T14:56:37;26.76;39.94
69543;SHT31;56762;49.494;11.768;2023-06-26T14:59:05;26.84;39.44
69543;SHT31;56762;49.494;11.768;2023-06-26T15:01:34;26.73;40.51
69543;SHT31;56762;49.494;11.768;2023-06-26T15:04:01;26.70;40.73
69543;SHT31;56762;49.494;11.768;2023-06-26T15:06:30;26.60;41.64
69543;SHT31;56762;49.494;11.768;2023-06-26T15:08:59;26.63;41.78
69543;SHT31;56762;49.494;11.768;2023-06-26T15:11:27;26.57;42.19
69543;SHT31;56762;49.494;11.768;2023-06-26T15:13:55;26.53;42.88
69543;SHT31;56762;49.494;11.768;2023-06-26T15:16:23;26.65;42.20
69543;SHT31;56762;49.494;11.768;2023-06-26T15:18:51;26.59;42.65
69543;SHT31;56762;49.494;11.768;2023-06-26T15:21:19;26.49;43.32
69543;SHT31;56762;49.494;11.768;2023-06-26T15:23:47;26.47;43.77
69543;SHT31;56762;49.494;11.768;2023-06-26T15:26:16;26.43;44.34